Time;durP1;ratioP1;P1;durP2;ratioP2;P2;SDS_P1;SDS_P2;PMS_P1;PMS_P2;Temp;Humidity;BMP_temperature;BMP_pressure;BME280_temperature;BME280_humidity;BME280_pressure;Samples;Min_cycle;Max_cycle;Signal;HPM_P1;HPM_P2
2022/10/05 00:01:43;;;;;;;4.13;3.20;;;11.30;99.90;;;;;;5051780;28;20411;-71
2022/10/05 00:04:21;;;;;;;4.03;3.07;;;11.30;99.90;;;;;;5041675;28;20406;-71
2022/10/05 00:06:57;;;;;;;3.03;2.80;;;11.30;99.90;;;;;;5043207;28;20402;-71
2022/10/05 00:09:22;;;;;;;4.40;3.20;;;11.20;99.90;;;;;;5051308;28;20586;-71
2022/10/05 00:11:49;;;;;;;4.07;3.00;;;11.20;99.90;;;;;;5038677;28;20511;-71
2022/10/05 00:14:26;;;;;;;3.67;2.70;;;11.20;99.90;;;;;;5047650;28;20167;-71
2022/10/05 00:16:52;;;;;;;2.97;2.60;;;11.20;99.90;;;;;;5044902;28;20397;-71
2022/10/05 00:19:29;;;;;;;7.60;2.80;;;11.10;99.90;;;;;;5050604;28;20458;-71
2022/10/05 00:22:15;;;;;;;3.13;2.83;;;11.10;99.90;;;;;;5021250;28;20166;-71
2022/10/05 00:24:42;;;;;;;8.70;3.00;;;11.20;99.90;;;;;;5041790;28;20398;-71
2022/10/05 00:27:21;;;;;;;4.80;3.30;;;11.20;99.90;;;;;;5052803;28;20414;-71
2022/10/05 00:29:50;;;;;;;5.10;3.23;;;11.10;99.90;;;;;;5032071;28;20574;-70
2022/10/05 00:32:16;;;;;;;11.43;3.70;;;11.10;99.90;;;;;;5047158;28;20943;-71
2022/10/05 00:34:42;;;;;;;6.80;3.27;;;11.00;99.90;;;;;;5040259;28;20548;-71
2022/10/05 00:37:08;;;;;;;2.93;2.63;;;11.10;99.90;;;;;;5038617;28;20422;-71
2022/10/05 00:39:37;;;;;;;5.40;2.87;;;11.00;99.90;;;;;;5050782;28;20456;-71
2022/10/05 00:42:11;;;;;;;3.60;2.90;;;11.00;99.90;;;;;;5040048;28;20195;-71
2022/10/05 00:45:20;;;;;;;5.00;3.33;;;11.00;99.90;;;;;;5043829;28;20406;-71
2022/10/05 00:48:03;;;;;;;3.07;2.60;;;11.10;99.90;;;;;;5044031;28;20446;-71
2022/10/05 00:50:35;;;;;;;3.17;2.80;;;11.00;99.90;;;;;;5044802;28;20418;-71
2022/10/05 00:53:31;;;;;;;7.40;2.63;;;11.00;99.90;;;;;;5047941;28;20405;-71
2022/10/05 00:56:12;;;;;;;4.33;2.87;;;11.00;99.90;;;;;;5035730;28;20768;-71
2022/10/05 00:59:02;;;;;;;3.03;2.67;;;11.10;99.90;;;;;;5050303;28;20457;-71
2022/10/05 01:01:53;;;;;;;2.60;2.30;;;11.00;99.90;;;;;;5037779;28;20464;-71
2022/10/05 01:04:39;;;;;;;5.07;2.90;;;10.90;99.90;;;;;;5040235;28;20424;-71
2022/10/05 01:07:37;;;;;;;4.73;2.93;;;11.00;99.90;;;;;;5039542;28;20461;-71
2022/10/05 01:10:12;;;;;;;4.87;2.47;;;10.90;99.90;;;;;;5015459;28;20475;-71
2022/10/05 01:12:50;;;;;;;4.57;3.00;;;11.00;99.90;;;;;;5042796;28;20418;-71
2022/10/05 01:15:15;;;;;;;3.73;2.67;;;11.00;99.90;;;;;;5048929;28;20716;-71
2022/10/05 01:17:56;;;;;;;3.53;3.23;;;11.10;99.90;;;;;;5036966;28;20698;-71
2022/10/05 01:20:49;;;;;;;3.07;2.77;;;11.00;99.90;;;;;;5041360;28;20178;-71
2022/10/05 01:23:37;;;;;;;3.73;3.27;;;11.10;99.90;;;;;;5037493;28;20489;-71
2022/10/05 01:26:21;;;;;;;4.03;2.93;;;11.00;99.90;;;;;;5024523;28;20398;-71
2022/10/05 01:28:52;;;;;;;5.67;3.13;;;11.10;99.90;;;;;;5039803;28;20429;-71
2022/10/05 01:31:38;;;;;;;4.70;2.90;;;11.10;99.90;;;;;;5037577;28;20425;-71
2022/10/05 01:34:33;;;;;;;5.67;2.97;;;11.10;99.90;;;;;;5041641;28;20409;-71
2022/10/05 01:37:05;;;;;;;6.40;3.33;;;11.10;99.90;;;;;;5048273;28;20500;-71
2022/10/05 01:39:53;;;;;;;3.33;2.27;;;11.10;99.90;;;;;;5035039;28;20458;-71
2022/10/05 01:42:41;;;;;;;2.83;2.33;;;11.10;99.90;;;;;;5046136;28;20461;-71
2022/10/05 01:45:47;;;;;;;5.17;3.00;;;11.10;99.90;;;;;;5035865;28;20410;-71
2022/10/05 01:48:22;;;;;;;11.73;3.20;;;11.00;99.90;;;;;;4998502;28;20443;-71
2022/10/05 01:51:10;;;;;;;2.47;2.20;;;10.90;99.90;;;;;;5031023;28;20801;-71
2022/10/05 01:53:54;;;;;;;3.90;2.90;;;10.90;99.90;;;;;;5045410;28;20405;-71
2022/10/05 01:56:27;;;;;;;4.07;3.03;;;10.90;99.90;;;;;;5043287;28;20421;-71
2022/10/05 01:59:19;;;;;;;4.03;2.73;;;10.90;99.90;;;;;;5035828;28;20446;-71
2022/10/05 02:01:57;;;;;;;3.80;2.63;;;10.90;99.90;;;;;;5044298;28;20422;-71
2022/10/05 02:04:33;;;;;;;5.03;3.00;;;10.80;99.90;;;;;;5040052;28;20577;-71
2022/10/05 02:07:02;;;;;;;3.30;3.00;;;10.70;99.90;;;;;;5049414;28;20422;-71
2022/10/05 02:09:36;;;;;;;3.37;3.07;;;10.80;99.90;;;;;;5039364;28;20502;-71
2022/10/05 02:12:06;;;;;;;3.40;2.93;;;10.70;99.90;;;;;;5042181;28;20415;-70
2022/10/05 02:14:42;;;;;;;4.93;3.10;;;10.60;99.90;;;;;;5032260;28;20422;-70
2022/10/05 02:17:15;;;;;;;8.80;3.60;;;10.60;99.90;;;;;;5050512;28;20412;-70
2022/10/05 02:19:45;;;;;;;3.67;3.30;;;10.60;99.90;;;;;;5044694;28;21143;-70
2022/10/05 02:22:14;;;;;;;2.70;2.50;;;10.60;99.90;;;;;;5052206;28;20488;-70
2022/10/05 02:24:53;;;;;;;5.43;2.70;;;10.60;99.90;;;;;;5035642;28;20426;-70
2022/10/05 02:27:24;;;;;;;6.17;2.97;;;10.50;99.90;;;;;;5032548;28;20778;-70
2022/10/05 02:29:54;;;;;;;6.40;2.90;;;10.50;99.90;;;;;;5026553;28;20428;-70
2022/10/05 02:32:27;;;;;;;5.27;2.90;;;10.50;99.90;;;;;;5045450;28;20411;-70
2022/10/05 02:35:00;;;;;;;2.93;2.63;;;10.40;99.90;;;;;;5035588;28;20493;-70
2022/10/05 02:37:44;;;;;;;3.87;3.53;;;10.50;99.90;;;;;;5045300;28;20421;-70
2022/10/05 02:40:31;;;;;;;8.67;2.67;;;10.60;99.90;;;;;;5043973;28;20453;-70
2022/10/05 02:43:08;;;;;;;3.60;2.73;;;10.40;99.90;;;;;;5046646;28;20405;-71
2022/10/05 02:46:06;;;;;;;4.63;3.60;;;10.30;99.90;;;;;;5039607;28;20463;-71
2022/10/05 02:48:49;;;;;;;3.07;2.40;;;10.30;99.90;;;;;;5042500;28;20431;-71
2022/10/05 02:51:24;;;;;;;3.10;2.10;;;10.30;99.90;;;;;;5017100;28;20793;-71
2022/10/05 02:54:09;;;;;;;3.30;2.80;;;10.30;99.90;;;;;;5035558;28;20770;-70
2022/10/05 02:56:57;;;;;;;3.73;3.03;;;10.20;99.90;;;;;;5046724;28;20412;-70
2022/10/05 02:59:45;;;;;;;2.93;2.67;;;10.30;99.90;;;;;;5025062;28;20506;-70
2022/10/05 03:02:21;;;;;;;4.37;2.90;;;10.30;99.90;;;;;;5039508;28;20768;-70
2022/10/05 03:04:52;;;;;;;6.97;3.20;;;10.30;99.90;;;;;;5037035;28;20414;-70
2022/10/05 03:07:37;;;;;;;3.80;3.40;;;10.30;99.90;;;;;;5046511;28;20413;-70
2022/10/05 03:10:19;;;;;;;3.23;2.93;;;10.30;99.90;;;;;;5041980;28;20771;-70
2022/10/05 03:12:54;;;;;;;5.07;2.43;;;10.40;99.90;;;;;;5034814;28;20493;-71
2022/10/05 03:16:01;;;;;;;4.10;3.40;;;10.40;99.90;;;;;;5039818;28;20824;-71
2022/10/05 03:18:51;;;;;;;4.03;3.13;;;10.50;99.90;;;;;;5041077;28;20476;-72
2022/10/05 03:21:45;;;;;;;4.00;2.70;;;10.40;99.90;;;;;;5032376;28;20540;-70
2022/10/05 03:24:29;;;;;;;4.83;3.00;;;10.40;99.90;;;;;;5046969;28;20458;-71
2022/10/05 03:27:01;;;;;;;4.30;2.73;;;10.40;99.90;;;;;;5034371;28;20391;-70
2022/10/05 03:29:46;;;;;;;4.17;3.10;;;10.50;99.90;;;;;;5038748;28;20440;-70
2022/10/05 03:32:40;;;;;;;10.43;3.30;;;10.50;99.90;;;;;;5042561;28;20426;-70
2022/10/05 03:35:14;;;;;;;6.30;3.63;;;10.60;99.90;;;;;;5047114;28;20759;-70
2022/10/05 03:37:50;;;;;;;3.77;2.30;;;10.60;99.90;;;;;;5023480;28;20468;-70
2022/10/05 03:40:30;;;;;;;4.80;2.80;;;10.60;99.90;;;;;;5043073;28;20483;-70
2022/10/05 03:43:16;;;;;;;3.13;2.73;;;10.60;99.90;;;;;;5038583;28;20509;-70
2022/10/05 03:45:56;;;;;;;3.50;2.80;;;10.70;99.90;;;;;;5042769;28;20417;-70
2022/10/05 03:48:32;;;;;;;4.67;4.10;;;10.70;99.90;;;;;;5044582;28;20567;-70
2022/10/05 03:51:12;;;;;;;2.97;2.60;;;10.70;99.90;;;;;;5034411;28;20414;-70
2022/10/05 03:53:53;;;;;;;4.37;2.87;;;10.70;99.90;;;;;;5033828;28;20488;-71
2022/10/05 03:56:30;;;;;;;3.17;2.90;;;10.70;99.90;;;;;;5044202;28;20895;-71
2022/10/05 03:59:01;;;;;;;5.10;3.70;;;10.70;99.90;;;;;;5034132;28;20449;-71
2022/10/05 04:01:41;;;;;;;3.53;2.47;;;10.80;99.90;;;;;;5044757;28;20410;-71
2022/10/05 04:04:12;;;;;;;4.67;3.10;;;10.80;99.90;;;;;;5033763;28;20500;-71
2022/10/05 04:06:46;;;;;;;3.03;2.70;;;10.80;99.90;;;;;;5033151;28;20488;-71
2022/10/05 04:09:12;;;;;;;3.20;2.30;;;10.80;99.90;;;;;;5018579;28;20524;-71
2022/10/05 04:12:06;;;;;;;5.20;3.50;;;10.80;99.90;;;;;;5047062;28;20516;-71
2022/10/05 04:14:47;;;;;;;4.53;2.33;;;10.70;99.90;;;;;;5035452;28;20186;-71
2022/10/05 04:17:16;;;;;;;2.90;2.50;;;10.80;99.90;;;;;;5026499;28;20431;-71
2022/10/05 04:19:52;;;;;;;5.10;3.40;;;10.80;99.90;;;;;;5040293;28;20522;-71
2022/10/05 04:22:24;;;;;;;2.63;2.40;;;10.80;99.90;;;;;;5031885;28;20504;-71
2022/10/05 04:25:03;;;;;;;7.23;2.70;;;10.80;99.90;;;;;;5033706;28;20939;-71
2022/10/05 04:27:49;;;;;;;2.57;2.20;;;10.80;99.90;;;;;;5044362;28;20426;-71
2022/10/05 04:30:21;;;;;;;4.57;3.00;;;10.80;99.90;;;;;;5042927;28;20857;-71
2022/10/05 04:32:57;;;;;;;3.80;2.70;;;10.80;99.90;;;;;;5033866;28;20501;-71
2022/10/05 04:35:28;;;;;;;4.80;3.77;;;10.80;99.90;;;;;;5044738;28;20491;-71
2022/10/05 04:38:03;;;;;;;6.10;2.77;;;10.80;99.90;;;;;;5039874;28;20436;-72
2022/10/05 04:40:37;;;;;;;4.17;2.90;;;10.80;99.90;;;;;;5035977;28;20424;-71
2022/10/05 04:43:35;;;;;;;4.50;2.60;;;10.80;99.90;;;;;;5035204;28;20417;-71
2022/10/05 04:46:07;;;;;;;7.43;3.20;;;10.80;99.90;;;;;;5034539;28;20401;-71
2022/10/05 04:49:13;;;;;;;6.60;3.77;;;10.80;99.90;;;;;;5038516;28;20521;-71
2022/10/05 04:52:09;;;;;;;4.13;2.70;;;10.80;99.90;;;;;;5024031;28;20425;-71
2022/10/05 04:55:12;;;;;;;3.73;2.90;;;10.80;99.90;;;;;;5040207;28;20437;-71
2022/10/05 04:58:14;;;;;;;3.77;2.90;;;10.70;99.90;;;;;;5027673;28;20425;-71
2022/10/05 05:01:06;;;;;;;3.90;2.90;;;10.70;99.90;;;;;;5020600;28;20470;-71
2022/10/05 05:03:57;;;;;;;6.60;2.80;;;10.60;99.90;;;;;;5007524;28;20420;-71
2022/10/05 05:06:31;;;;;;;5.53;3.43;;;10.60;99.90;;;;;;5040835;28;20402;-71
2022/10/05 05:09:06;;;;;;;7.83;3.30;;;10.60;99.90;;;;;;5036524;28;20932;-71
2022/10/05 05:12:08;;;;;;;8.93;3.40;;;10.70;99.90;;;;;;5046893;28;20397;-71
2022/10/05 05:15:04;;;;;;;7.90;2.60;;;10.70;99.90;;;;;;5048507;28;20401;-74
2022/10/05 05:17:45;;;;;;;2.93;2.50;;;10.80;99.90;;;;;;5033215;28;20542;-73
2022/10/05 05:20:26;;;;;;;3.63;2.90;;;10.70;99.90;;;;;;5052857;28;21057;-73
2022/10/05 05:23:27;;;;;;;4.00;2.70;;;10.80;99.90;;;;;;5053744;28;20765;-70
2022/10/05 05:25:53;;;;;;;6.57;3.33;;;10.80;99.90;;;;;;5032758;28;20416;-74
2022/10/05 05:28:47;;;;;;;3.47;3.17;;;10.80;99.90;;;;;;5039129;28;20445;-70
2022/10/05 05:31:29;;;;;;;6.90;3.57;;;10.80;99.90;;;;;;5027819;28;20180;-70
2022/10/05 05:34:22;;;;;;;4.83;3.40;;;10.80;99.90;;;;;;5032384;28;20948;-71
2022/10/05 05:37:00;;;;;;;4.10;3.13;;;10.80;99.90;;;;;;5035647;28;20406;-73
2022/10/05 05:39:40;;;;;;;7.47;3.80;;;10.80;99.90;;;;;;5031271;28;20478;-71
2022/10/05 05:42:25;;;;;;;4.63;4.10;;;10.80;99.90;;;;;;5033261;28;20490;-71
2022/10/05 05:44:55;;;;;;;11.00;3.53;;;10.90;99.90;;;;;;5035155;28;20403;-70
2022/10/05 05:47:34;;;;;;;5.50;2.97;;;10.90;99.90;;;;;;5036513;28;20410;-70
2022/10/05 05:50:23;;;;;;;4.30;3.33;;;10.90;99.90;;;;;;5031567;28;20823;-70
2022/10/05 05:53:04;;;;;;;6.30;3.60;;;10.90;99.90;;;;;;5032815;28;20410;-70
2022/10/05 05:55:45;;;;;;;3.87;3.43;;;11.00;99.90;;;;;;5030307;28;20429;-71
2022/10/05 05:58:26;;;;;;;9.87;4.40;;;11.00;99.90;;;;;;5033355;28;20429;-71
2022/10/05 06:01:22;;;;;;;4.63;3.20;;;11.00;99.90;;;;;;5034783;28;20425;-70
2022/10/05 06:04:11;;;;;;;4.27;3.10;;;11.00;99.90;;;;;;5032723;28;20430;-70
2022/10/05 06:06:41;;;;;;;5.07;3.20;;;11.10;99.90;;;;;;5030985;28;20413;-71
2022/10/05 06:09:22;;;;;;;4.70;3.27;;;11.10;99.90;;;;;;5032479;28;20502;-70
2022/10/05 06:12:06;;;;;;;9.30;4.53;;;11.10;99.90;;;;;;5031892;28;21244;-70
2022/10/05 06:14:38;;;;;;;4.23;3.57;;;11.20;99.90;;;;;;5033836;28;20414;-70
2022/10/05 06:17:12;;;;;;;4.80;3.43;;;11.30;99.90;;;;;;5032899;28;20973;-71
2022/10/05 06:19:40;;;;;;;3.80;3.23;;;11.30;99.90;;;;;;5034005;28;20806;-71
2022/10/05 06:22:39;;;;;;;4.77;3.00;;;11.40;99.90;;;;;;5030993;28;20411;-71
2022/10/05 06:25:10;;;;;;;7.70;3.40;;;11.50;99.90;;;;;;5032692;28;20837;-70
2022/10/05 06:27:37;;;;;;;4.73;3.00;;;11.50;99.90;;;;;;5032709;28;20908;-71
2022/10/05 06:30:06;;;;;;;3.60;3.30;;;11.50;99.90;;;;;;5033027;28;20408;-70
2022/10/05 06:32:49;;;;;;;4.63;3.17;;;11.60;99.90;;;;;;5033668;28;20399;-71
2022/10/05 06:35:39;;;;;;;4.60;3.10;;;11.60;99.90;;;;;;5032930;28;20413;-71
2022/10/05 06:38:35;;;;;;;6.80;3.23;;;11.60;99.90;;;;;;5034902;28;20855;-70
2022/10/05 06:41:18;;;;;;;3.07;2.87;;;11.70;99.90;;;;;;5035863;28;20936;-70
2022/10/05 06:44:14;;;;;;;3.03;2.83;;;11.80;99.90;;;;;;5043592;28;20457;-69
2022/10/05 06:46:55;;;;;;;4.83;3.17;;;11.90;99.90;;;;;;5033604;28;20546;-70
2022/10/05 06:49:26;;;;;;;3.07;2.77;;;12.00;99.90;;;;;;5019136;28;20446;-70
2022/10/05 06:52:08;;;;;;;7.20;4.57;;;12.10;99.90;;;;;;5040951;28;20418;-70
2022/10/05 06:55:10;;;;;;;3.80;3.30;;;12.00;99.90;;;;;;5036342;28;20414;-70
2022/10/05 06:57:55;;;;;;;3.60;3.13;;;12.10;99.90;;;;;;5025987;28;20436;-74
2022/10/05 07:00:30;;;;;;;7.40;2.80;;;12.20;99.90;;;;;;5037954;28;20974;-70
2022/10/05 07:03:10;;;;;;;7.30;3.27;;;12.30;99.90;;;;;;5047809;28;20481;-70
2022/10/05 07:05:45;;;;;;;7.83;3.00;;;12.50;99.90;;;;;;5038253;28;20438;-70
2022/10/05 07:08:55;;;;;;;3.50;3.03;;;12.50;99.90;;;;;;5038361;28;20442;-71
2022/10/05 07:11:30;;;;;;;6.13;3.70;;;12.50;99.90;;;;;;5017917;28;20417;-70
2022/10/05 07:14:21;;;;;;;4.50;3.50;;;12.50;99.90;;;;;;5041491;28;20413;-71
2022/10/05 07:17:03;;;;;;;2.93;2.70;;;12.50;99.90;;;;;;5046865;28;20750;-70
2022/10/05 07:19:56;;;;;;;4.40;3.50;;;12.70;99.90;;;;;;5026186;28;20461;-69
2022/10/05 07:22:42;;;;;;;3.80;2.50;;;12.80;99.90;;;;;;5035475;28;20402;-70
2022/10/05 07:25:26;;;;;;;3.27;2.90;;;12.80;99.90;;;;;;5044326;28;20401;-70
2022/10/05 07:28:17;;;;;;;4.87;2.20;;;12.70;99.90;;;;;;5026365;28;20442;-70
2022/10/05 07:30:55;;;;;;;4.63;2.43;;;12.80;99.90;;;;;;5042272;28;20433;-70
2022/10/05 07:33:29;;;;;;;4.97;2.73;;;13.00;99.90;;;;;;5029019;28;20460;-69
2022/10/05 07:39:13;;;;;;;5.50;2.60;;;13.80;99.90;;;;;;5023137;28;20775;-73
2022/10/05 07:41:46;;;;;;;3.63;2.80;;;14.10;99.90;;;;;;5032385;28;20427;-73
2022/10/05 07:44:15;;;;;;;3.93;2.77;;;14.40;99.90;;;;;;5047396;28;20410;-73
2022/10/05 07:46:59;;;;;;;3.50;2.50;;;14.40;99.90;;;;;;5027973;28;20520;-73
2022/10/05 07:49:40;;;;;;;6.37;3.47;;;14.30;99.90;;;;;;5017441;28;20469;-73
2022/10/05 07:52:20;;;;;;;5.77;2.70;;;14.50;99.90;;;;;;5007582;28;20420;-73
2022/10/05 07:55:24;;;;;;;2.47;2.00;;;14.60;99.90;;;;;;5002486;28;20412;-73
2022/10/05 07:58:11;;;;;;;4.50;2.07;;;14.80;99.90;;;;;;5014615;28;20865;-73
2022/10/05 08:00:58;;;;;;;6.33;2.70;;;14.50;99.90;;;;;;5014511;28;20573;-73
2022/10/05 08:03:32;;;;;;;2.43;2.23;;;14.70;99.90;;;;;;5014622;28;20422;-73
2022/10/05 08:06:00;;;;;;;2.80;2.07;;;14.60;99.90;;;;;;5012688;28;20992;-73
2022/10/05 08:08:52;;;;;;;4.60;2.60;;;14.80;99.90;;;;;;5014417;28;20430;-73
2022/10/05 08:11:25;;;;;;;2.33;1.87;;;14.50;99.90;;;;;;5020287;28;20412;-73
2022/10/05 08:14:08;;;;;;;10.77;2.87;;;14.50;99.90;;;;;;5024716;28;20399;-73
2022/10/05 08:16:37;;;;;;;4.60;2.57;;;14.40;99.90;;;;;;4996281;28;20435;-73
2022/10/05 08:19:19;;;;;;;4.83;2.40;;;14.40;99.90;;;;;;5018191;28;20807;-73
2022/10/05 08:21:53;;;;;;;4.97;1.97;;;14.40;99.90;;;;;;5023942;28;20500;-74
2022/10/05 08:24:21;;;;;;;3.60;1.63;;;14.60;99.90;;;;;;5016116;28;20423;-73
2022/10/05 08:27:03;;;;;;;3.20;2.40;;;15.10;99.90;;;;;;5028573;28;20414;-74
2022/10/05 08:30:00;;;;;;;2.63;2.43;;;15.10;99.90;;;;;;5019129;28;20444;-73
2022/10/05 08:32:36;;;;;;;6.13;2.53;;;15.00;99.90;;;;;;5024968;28;20435;-73
2022/10/05 08:35:23;;;;;;;3.33;2.47;;;15.00;99.90;;;;;;5015549;28;20511;-73
2022/10/05 08:37:50;;;;;;;8.53;3.20;;;15.00;99.90;;;;;;5027891;28;20956;-72
2022/10/05 08:40:20;;;;;;;8.83;2.67;;;15.10;99.90;;;;;;5016475;28;20566;-72
2022/10/05 08:43:16;;;;;;;3.27;1.93;;;15.20;99.90;;;;;;5028594;28;20402;-72
2022/10/05 08:46:23;;;;;;;3.40;2.90;;;15.10;99.90;;;;;;5016881;28;20433;-72
2022/10/05 08:49:24;;;;;;;3.57;1.80;;;15.20;99.90;;;;;;5005863;28;20418;-72
2022/10/05 08:52:35;;;;;;;2.60;2.00;;;15.20;99.90;;;;;;5016175;28;20566;-73
2022/10/05 08:55:09;;;;;;;3.20;1.87;;;15.30;99.90;;;;;;4979599;28;20426;-72
2022/10/05 08:58:04;;;;;;;3.90;2.23;;;15.60;99.90;;;;;;4972306;28;20465;-73
2022/10/05 09:00:54;;;;;;;3.70;2.10;;;15.60;99.90;;;;;;5005717;28;20880;-72
2022/10/05 09:03:49;;;;;;;2.37;2.10;;;15.80;99.90;;;;;;5023188;28;20432;-73
2022/10/05 09:06:53;;;;;;;3.87;2.57;;;15.80;99.90;;;;;;4975293;28;20509;-73
2022/10/05 09:09:53;;;;;;;3.80;2.40;;;15.80;99.90;;;;;;5002373;28;20427;-72
2022/10/05 09:12:21;;;;;;;3.13;2.30;;;15.90;99.90;;;;;;5015544;28;20413;-73
2022/10/05 09:15:15;;;;;;;2.67;2.40;;;15.80;99.90;;;;;;5027761;28;20400;-73
2022/10/05 09:17:59;;;;;;;2.10;1.90;;;15.80;99.90;;;;;;5027873;28;20484;-73
2022/10/05 09:20:33;;;;;;;5.50;3.03;;;15.70;99.90;;;;;;5016863;28;20466;-73
2022/10/05 09:23:09;;;;;;;3.33;2.17;;;15.80;99.90;;;;;;5014292;28;20408;-73
2022/10/05 09:25:54;;;;;;;3.03;2.30;;;16.10;99.90;;;;;;5012917;28;20428;-73
2022/10/05 09:28:42;;;;;;;3.50;2.17;;;16.00;99.90;;;;;;5028339;28;20437;-73
2022/10/05 09:31:20;;;;;;;3.10;2.77;;;16.30;99.90;;;;;;5023640;28;20413;-73
2022/10/05 09:34:14;;;;;;;4.33;2.60;;;16.20;99.90;;;;;;5026504;28;20889;-73
2022/10/05 09:37:12;;;;;;;5.50;2.40;;;16.20;99.90;;;;;;5008730;28;20450;-73
2022/10/05 09:40:05;;;;;;;2.97;2.67;;;16.00;99.90;;;;;;5018374;28;20509;-72
2022/10/05 09:42:53;;;;;;;3.87;2.90;;;16.10;99.90;;;;;;5017101;28;20424;-73
2022/10/05 09:45:34;;;;;;;2.93;2.63;;;16.10;99.90;;;;;;5020100;28;20429;-73
2022/10/05 09:48:20;;;;;;;4.00;3.10;;;16.00;99.90;;;;;;5014283;28;20791;-72
2022/10/05 09:51:40;;;;;;;5.40;2.33;;;16.20;99.90;;;;;;5004184;28;20958;-73
2022/10/05 09:54:28;;;;;;;5.80;2.33;;;16.30;99.90;;;;;;4956358;28;20467;-73
2022/10/05 09:57:06;;;;;;;4.73;2.70;;;16.50;99.90;;;;;;5018727;28;20420;-72
2022/10/05 09:59:53;;;;;;;2.87;2.67;;;16.50;99.90;;;;;;5020333;28;20461;-73
2022/10/05 10:03:05;;;;;;;3.00;2.50;;;16.50;99.90;;;;;;5019890;28;20886;-73
2022/10/05 10:05:40;;;;;;;4.67;2.87;;;16.30;99.90;;;;;;5020227;28;20511;-73
2022/10/05 10:08:44;;;;;;;3.17;2.87;;;16.20;99.90;;;;;;5028801;28;20481;-73
2022/10/05 10:11:27;;;;;;;3.10;2.80;;;16.10;99.90;;;;;;5016860;28;20419;-72
2022/10/05 10:14:14;;;;;;;2.50;2.30;;;16.10;99.90;;;;;;5028050;28;20445;-72
2022/10/05 10:17:31;;;;;;;5.07;2.77;;;16.10;99.90;;;;;;5011185;28;20425;-72
2022/10/05 10:20:16;;;;;;;3.67;3.20;;;16.20;99.90;;;;;;4984963;28;20471;-72
2022/10/05 10:22:59;;;;;;;4.63;2.50;;;16.20;99.90;;;;;;5013301;28;20526;-72
2022/10/05 10:26:15;;;;;;;2.90;2.60;;;16.40;99.90;;;;;;4998408;28;20432;-72
2022/10/05 10:29:20;;;;;;;3.10;2.77;;;16.40;99.90;;;;;;5012054;28;20416;-72
2022/10/05 10:32:08;;;;;;;2.80;2.50;;;16.20;99.90;;;;;;5011809;28;20400;-73
2022/10/05 10:34:52;;;;;;;4.40;2.50;;;16.30;99.90;;;;;;4999763;28;20409;-73
2022/10/05 10:37:57;;;;;;;4.33;2.53;;;16.20;99.90;;;;;;5021532;28;20456;-73
2022/10/05 10:40:36;;;;;;;3.50;2.83;;;16.40;99.90;;;;;;5019677;28;20461;-73
2022/10/05 10:43:26;;;;;;;4.77;2.77;;;16.50;99.90;;;;;;5025777;28;20416;-73
2022/10/05 10:46:28;;;;;;;2.80;2.13;;;16.40;99.90;;;;;;5013281;28;20433;-72
2022/10/05 10:49:24;;;;;;;4.03;2.33;;;16.70;99.90;;;;;;5005515;28;20413;-72
2022/10/05 10:51:50;;;;;;;4.27;2.30;;;16.70;99.90;;;;;;5017221;28;20447;-72
2022/10/05 10:54:54;;;;;;;5.23;2.70;;;16.60;99.90;;;;;;5023720;28;20417;-73
2022/10/05 10:57:29;;;;;;;5.13;2.57;;;16.70;99.90;;;;;;5020335;28;20584;-72
2022/10/05 11:00:06;;;;;;;5.53;2.67;;;16.60;99.90;;;;;;5026610;28;20786;-72
2022/10/05 11:03:00;;;;;;;4.00;2.27;;;16.70;99.90;;;;;;5002948;28;20449;-72
2022/10/05 11:05:45;;;;;;;2.83;2.17;;;16.90;99.90;;;;;;5021874;28;20840;-72
2022/10/05 11:08:41;;;;;;;4.50;2.40;;;17.10;99.90;;;;;;5030270;28;20826;-72
2022/10/05 11:11:14;;;;;;;4.53;2.60;;;17.20;99.90;;;;;;5020137;28;20412;-73
2022/10/05 11:14:10;;;;;;;4.83;2.37;;;17.30;99.90;;;;;;5018498;28;20473;-72
2022/10/05 11:17:09;;;;;;;2.40;2.20;;;17.40;99.90;;;;;;5000011;28;20423;-72
2022/10/05 11:19:59;;;;;;;3.03;2.83;;;17.60;99.90;;;;;;5019286;28;20450;-72
2022/10/05 11:22:46;;;;;;;4.80;3.33;;;17.80;99.90;;;;;;5008930;28;20406;-72
2022/10/05 11:25:51;;;;;;;3.40;3.10;;;17.90;99.90;;;;;;4991316;28;20797;-71
2022/10/05 11:28:35;;;;;;;2.47;2.27;;;18.00;99.90;;;;;;4991194;28;20482;-72
2022/10/05 11:31:37;;;;;;;3.43;2.87;;;18.30;99.90;;;;;;4991569;28;20391;-72
2022/10/05 11:34:19;;;;;;;2.93;2.50;;;18.50;99.90;;;;;;4990579;28;20402;-72
2022/10/05 11:37:03;;;;;;;5.33;3.20;;;18.80;99.90;;;;;;4990921;28;20465;-71
2022/10/05 11:39:37;;;;;;;2.90;2.50;;;19.00;99.90;;;;;;5017717;28;20542;-72
2022/10/05 11:42:24;;;;;;;6.13;2.50;;;19.00;99.90;;;;;;4999252;28;20406;-72
2022/10/05 11:45:40;;;;;;;4.10;2.60;;;18.90;99.90;;;;;;5021326;28;20411;-71
2022/10/05 11:48:29;;;;;;;2.60;2.03;;;18.70;99.90;;;;;;4967631;28;20842;-72
2022/10/05 11:51:13;;;;;;;2.33;2.13;;;18.70;99.90;;;;;;4969420;28;20487;-72
2022/10/05 11:53:50;;;;;;;4.43;2.57;;;18.70;99.90;;;;;;4987125;28;20444;-72
2022/10/05 11:56:36;;;;;;;4.77;3.23;;;18.60;99.90;;;;;;4995345;28;20424;-72
2022/10/05 11:59:22;;;;;;;3.17;2.40;;;18.40;99.90;;;;;;4995350;28;20868;-72
2022/10/05 12:02:17;;;;;;;3.10;2.33;;;18.40;99.90;;;;;;5007572;28;20426;-72
2022/10/05 12:04:48;;;;;;;5.13;2.80;;;18.40;99.90;;;;;;4995012;28;20487;-72
2022/10/05 12:07:28;;;;;;;4.87;2.60;;;18.50;99.90;;;;;;4994118;28;20432;-72
2022/10/05 12:10:20;;;;;;;2.60;2.40;;;18.60;99.90;;;;;;4995205;28;20405;-72
2022/10/05 12:12:52;;;;;;;4.47;2.50;;;18.70;99.90;;;;;;4993832;28;20775;-72
2022/10/05 12:15:34;;;;;;;3.93;2.43;;;18.90;99.90;;;;;;4993592;28;20444;-72
2022/10/05 12:18:09;;;;;;;4.13;2.57;;;19.10;99.90;;;;;;4995346;28;20558;-72
2022/10/05 12:20:44;;;;;;;2.13;1.97;;;19.40;99.90;;;;;;4994039;28;20456;-72
2022/10/05 12:23:14;;;;;;;2.97;2.60;;;19.30;99.90;;;;;;5021905;28;20729;-73
2022/10/05 12:26:00;;;;;;;2.80;2.13;;;19.20;99.90;;;;;;4992715;28;20414;-72
2022/10/05 12:28:57;;;;;;;3.97;2.47;;;19.40;99.90;;;;;;4992895;28;20885;-72
2022/10/05 12:31:31;;;;;;;3.70;2.60;;;19.50;99.90;;;;;;4974714;28;20409;-72
2022/10/05 12:34:32;;;;;;;3.60;2.43;;;19.70;99.90;;;;;;4994735;28;20408;-72
2022/10/05 12:37:03;;;;;;;2.80;2.20;;;19.60;99.90;;;;;;4992437;28;20453;-72
2022/10/05 12:39:55;;;;;;;2.67;2.30;;;19.60;99.90;;;;;;5004690;28;20473;-72
2022/10/05 12:42:49;;;;;;;2.70;2.50;;;19.80;99.90;;;;;;5012724;28;20422;-72
2022/10/05 12:45:33;;;;;;;3.43;2.57;;;19.70;99.90;;;;;;5012222;28;20418;-72
2022/10/05 12:48:21;;;;;;;6.47;2.97;;;19.70;99.90;;;;;;5014079;28;20903;-72
2022/10/05 12:50:52;;;;;;;4.23;2.30;;;19.80;99.90;;;;;;5014150;28;20401;-72
2022/10/05 12:53:36;;;;;;;2.90;2.03;;;19.80;99.90;;;;;;5014000;28;20414;-72
2022/10/05 12:56:20;;;;;;;3.57;2.00;;;19.60;99.90;;;;;;5016119;28;20471;-72
2022/10/05 12:59:06;;;;;;;2.40;2.10;;;19.70;99.90;;;;;;5021332;28;20484;-72
2022/10/05 13:01:33;;;;;;;2.53;1.90;;;19.60;99.90;;;;;;5033458;28;20505;-72
2022/10/05 13:04:24;;;;;;;2.70;2.50;;;19.60;99.90;;;;;;5018208;28;20492;-72
2022/10/05 13:06:52;;;;;;;2.90;2.10;;;19.70;99.90;;;;;;5004318;28;20420;-72
2022/10/05 13:09:43;;;;;;;3.67;2.60;;;19.70;99.90;;;;;;5023829;28;20456;-73
2022/10/05 13:12:34;;;;;;;2.47;2.10;;;19.90;99.90;;;;;;5002803;28;20417;-72
2022/10/05 13:15:14;;;;;;;3.50;2.03;;;19.90;99.90;;;;;;5027212;28;20415;-72
2022/10/05 13:17:54;;;;;;;4.33;1.57;;;19.80;99.90;;;;;;5018213;28;20448;-72
2022/10/05 13:20:41;;;;;;;2.90;2.70;;;19.80;99.90;;;;;;5015146;28;20452;-72
2022/10/05 13:23:19;;;;;;;2.17;1.97;;;19.70;99.90;;;;;;5033798;28;20487;-72
2022/10/05 13:26:24;;;;;;;1.83;1.73;;;19.70;99.90;;;;;;5020004;28;20402;-72
2022/10/05 13:29:03;;;;;;;2.10;2.00;;;19.70;99.90;;;;;;4994014;28;20464;-72
2022/10/05 13:31:36;;;;;;;4.90;2.53;;;19.90;99.90;;;;;;5015719;28;20837;-72
2022/10/05 13:34:21;;;;;;;2.00;1.90;;;20.00;99.90;;;;;;5017834;28;20412;-72
2022/10/05 13:37:02;;;;;;;3.77;1.80;;;20.10;99.90;;;;;;5003004;28;20558;-72
2022/10/05 13:39:45;;;;;;;2.13;2.03;;;19.90;99.90;;;;;;5022724;28;20451;-72
2022/10/05 13:42:22;;;;;;;2.40;2.20;;;19.90;99.90;;;;;;5023157;28;20768;-72
2022/10/05 13:44:52;;;;;;;3.30;2.40;;;19.90;99.90;;;;;;5027570;28;20404;-72
2022/10/05 13:47:29;;;;;;;3.30;2.47;;;19.80;99.90;;;;;;5022694;28;20431;-72
2022/10/05 13:50:08;;;;;;;2.80;2.30;;;19.80;99.90;;;;;;5018478;28;20406;-72
2022/10/05 13:52:45;;;;;;;2.07;1.90;;;19.80;99.90;;;;;;5015885;28;20396;-72
2022/10/05 13:55:36;;;;;;;3.30;2.30;;;19.90;99.90;;;;;;5013016;28;20888;-72
2022/10/05 13:58:11;;;;;;;2.07;1.87;;;19.90;99.90;;;;;;5028538;28;20833;-72
2022/10/05 14:01:11;;;;;;;1.90;1.80;;;19.90;99.90;;;;;;4993668;28;20458;-72
2022/10/05 14:03:37;;;;;;;2.33;2.13;;;19.90;99.90;;;;;;5017577;28;20409;-72
2022/10/05 14:06:12;;;;;;;2.43;2.23;;;19.80;99.90;;;;;;5016816;28;20440;-72
2022/10/05 14:08:51;;;;;;;2.53;2.33;;;19.80;99.90;;;;;;5001379;28;20164;-72
2022/10/05 14:11:25;;;;;;;3.57;2.00;;;19.80;99.90;;;;;;5023178;28;20411;-72